sensor_id;sensor_type;location;lat;lon;timestamp;P1;durP1;ratioP1;P2;durP2;ratioP2
17648;SDS011;8943;51.110;-4.158;2023-05-07T00:01:12;17.63;;;4.60;;
17648;SDS011;8943;51.110;-4.158;2023-05-07T00:03:40;15.97;;;4.50;;
17648;SDS011;8943;51.110;-4.158;2023-05-07T00:06:09;13.27;;;4.80;;
17648;SDS011;8943;51.110;-4.158;2023-05-07T00:08:38;15.47;;;4.77;;
17648;SDS011;8943;51.110;-4.158;2023-05-07T00:11:07;19.67;;;5.27;;
17648;SDS011;8943;51.110;-4.158;2023-05-07T00:13:35;17.53;;;5.47;;
17648;SDS011;8943;51.110;-4.158;2023-05-07T00:16:05;12.93;;;4.37;;
17648;SDS011;8943;51.110;-4.158;2023-05-07T00:18:33;15.37;;;5.40;;
17648;SDS011;8943;51.110;-4.158;2023-05-07T00:21:01;17.97;;;5.30;;
17648;SDS011;8943;51.110;-4.158;2023-05-07T00:23:29;13.83;;;4.70;;
17648;SDS011;8943;51.110;-4.158;2023-05-07T00:25:57;15.80;;;5.30;;
17648;SDS011;8943;51.110;-4.158;2023-05-07T00:28:25;16.40;;;5.27;;
17648;SDS011;8943;51.110;-4.158;2023-05-07T00:30:53;21.13;;;5.53;;
17648;SDS011;8943;51.110;-4.158;2023-05-07T00:33:23;18.57;;;5.63;;
17648;SDS011;8943;51.110;-4.158;2023-05-07T00:35:53;16.87;;;6.50;;
17648;SDS011;8943;51.110;-4.158;2023-05-07T00:38:21;14.73;;;6.40;;
17648;SDS011;8943;51.110;-4.158;2023-05-07T00:40:49;15.47;;;6.13;;
17648;SDS011;8943;51.110;-4.158;2023-05-07T00:43:18;15.90;;;6.17;;
17648;SDS011;8943;51.110;-4.158;2023-05-07T00:45:46;14.00;;;5.70;;
17648;SDS011;8943;51.110;-4.158;2023-05-07T00:48:17;14.63;;;5.93;;
17648;SDS011;8943;51.110;-4.158;2023-05-07T00:50:47;19.17;;;6.57;;
17648;SDS011;8943;51.110;-4.158;2023-05-07T00:53:15;29.33;;;6.43;;
17648;SDS011;8943;51.110;-4.158;2023-05-07T00:55:43;15.30;;;6.87;;
17648;SDS011;8943;51.110;-4.158;2023-05-07T00:58:11;15.33;;;7.47;;
17648;SDS011;8943;51.110;-4.158;2023-05-07T01:00:40;22.50;;;7.10;;
17648;SDS011;8943;51.110;-4.158;2023-05-07T01:03:08;15.50;;;7.43;;
17648;SDS011;8943;51.110;-4.158;2023-05-07T01:05:36;25.93;;;7.57;;
17648;SDS011;8943;51.110;-4.158;2023-05-07T01:08:07;21.00;;;6.83;;
17648;SDS011;8943;51.110;-4.158;2023-05-07T01:10:35;21.87;;;7.43;;
17648;SDS011;8943;51.110;-4.158;2023-05-07T01:13:05;21.13;;;6.87;;
17648;SDS011;8943;51.110;-4.158;2023-05-07T01:15:33;15.90;;;6.97;;
17648;SDS011;8943;51.110;-4.158;2023-05-07T01:18:01;21.27;;;7.07;;
17648;SDS011;8943;51.110;-4.158;2023-05-07T01:20:30;20.03;;;7.03;;
17648;SDS011;8943;51.110;-4.158;2023-05-07T01:22:59;21.10;;;8.03;;
17648;SDS011;8943;51.110;-4.158;2023-05-07T01:25:28;16.97;;;5.87;;
17648;SDS011;8943;51.110;-4.158;2023-05-07T01:27:57;18.93;;;6.50;;
17648;SDS011;8943;51.110;-4.158;2023-05-07T01:30:26;16.87;;;6.50;;
17648;SDS011;8943;51.110;-4.158;2023-05-07T01:32:56;18.17;;;6.00;;
17648;SDS011;8943;51.110;-4.158;2023-05-07T01:35:30;16.80;;;6.60;;
17648;SDS011;8943;51.110;-4.158;2023-05-07T01:38:05;19.20;;;6.43;;
17648;SDS011;8943;51.110;-4.158;2023-05-07T01:40:33;21.13;;;6.03;;
17648;SDS011;8943;51.110;-4.158;2023-05-07T01:43:01;18.63;;;6.50;;
17648;SDS011;8943;51.110;-4.158;2023-05-07T01:45:30;11.57;;;4.97;;
17648;SDS011;8943;51.110;-4.158;2023-05-07T01:47:59;18.53;;;6.00;;
17648;SDS011;8943;51.110;-4.158;2023-05-07T01:50:27;20.13;;;6.30;;
17648;SDS011;8943;51.110;-4.158;2023-05-07T01:52:56;14.33;;;5.83;;
17648;SDS011;8943;51.110;-4.158;2023-05-07T01:55:25;16.53;;;6.20;;
17648;SDS011;8943;51.110;-4.158;2023-05-07T01:57:53;19.43;;;6.00;;
17648;SDS011;8943;51.110;-4.158;2023-05-07T02:00:22;19.30;;;6.23;;
17648;SDS011;8943;51.110;-4.158;2023-05-07T02:02:50;15.23;;;5.97;;
17648;SDS011;8943;51.110;-4.158;2023-05-07T02:05:19;16.20;;;5.87;;
17648;SDS011;8943;51.110;-4.158;2023-05-07T02:07:47;16.43;;;6.23;;
17648;SDS011;8943;51.110;-4.158;2023-05-07T02:10:15;14.50;;;5.53;;
17648;SDS011;8943;51.110;-4.158;2023-05-07T02:12:45;13.10;;;5.47;;
17648;SDS011;8943;51.110;-4.158;2023-05-07T02:15:13;16.50;;;5.23;;
17648;SDS011;8943;51.110;-4.158;2023-05-07T02:20:28;13.23;;;5.00;;
17648;SDS011;8943;51.110;-4.158;2023-05-07T02:22:56;16.47;;;5.27;;
17648;SDS011;8943;51.110;-4.158;2023-05-07T02:25:24;16.57;;;4.83;;
17648;SDS011;8943;51.110;-4.158;2023-05-07T02:27:53;22.00;;;4.93;;
17648;SDS011;8943;51.110;-4.158;2023-05-07T02:30:21;20.63;;;5.27;;
17648;SDS011;8943;51.110;-4.158;2023-05-07T02:32:50;16.73;;;4.47;;
17648;SDS011;8943;51.110;-4.158;2023-05-07T02:35:18;14.17;;;5.33;;
17648;SDS011;8943;51.110;-4.158;2023-05-07T02:37:46;18.03;;;5.60;;
17648;SDS011;8943;51.110;-4.158;2023-05-07T02:40:14;18.67;;;5.20;;
17648;SDS011;8943;51.110;-4.158;2023-05-07T02:42:42;18.57;;;4.93;;
17648;SDS011;8943;51.110;-4.158;2023-05-07T02:45:11;17.83;;;4.23;;
17648;SDS011;8943;51.110;-4.158;2023-05-07T02:47:40;14.77;;;5.03;;
17648;SDS011;8943;51.110;-4.158;2023-05-07T02:50:08;16.90;;;5.20;;
17648;SDS011;8943;51.110;-4.158;2023-05-07T02:52:37;22.20;;;4.70;;
17648;SDS011;8943;51.110;-4.158;2023-05-07T02:55:06;12.70;;;5.23;;
17648;SDS011;8943;51.110;-4.158;2023-05-07T02:57:34;19.43;;;5.70;;
17648;SDS011;8943;51.110;-4.158;2023-05-07T03:00:11;14.13;;;4.87;;
17648;SDS011;8943;51.110;-4.158;2023-05-07T03:02:41;18.07;;;5.23;;
17648;SDS011;8943;51.110;-4.158;2023-05-07T03:05:09;19.87;;;5.00;;
17648;SDS011;8943;51.110;-4.158;2023-05-07T03:07:38;17.37;;;5.40;;
17648;SDS011;8943;51.110;-4.158;2023-05-07T03:10:06;18.83;;;6.43;;
17648;SDS011;8943;51.110;-4.158;2023-05-07T03:12:35;11.83;;;5.57;;
17648;SDS011;8943;51.110;-4.158;2023-05-07T03:15:03;15.20;;;6.53;;
17648;SDS011;8943;51.110;-4.158;2023-05-07T03:17:33;18.53;;;6.27;;
17648;SDS011;8943;51.110;-4.158;2023-05-07T03:20:02;22.37;;;7.17;;
17648;SDS011;8943;51.110;-4.158;2023-05-07T03:22:31;18.17;;;6.50;;
17648;SDS011;8943;51.110;-4.158;2023-05-07T03:25:00;19.13;;;6.63;;
17648;SDS011;8943;51.110;-4.158;2023-05-07T03:27:28;17.77;;;6.23;;
17648;SDS011;8943;51.110;-4.158;2023-05-07T03:29:56;20.97;;;6.33;;
17648;SDS011;8943;51.110;-4.158;2023-05-07T03:32:24;20.53;;;6.30;;
17648;SDS011;8943;51.110;-4.158;2023-05-07T03:34:54;12.77;;;5.60;;
17648;SDS011;8943;51.110;-4.158;2023-05-07T03:37:22;15.47;;;6.47;;
17648;SDS011;8943;51.110;-4.158;2023-05-07T03:39:50;17.43;;;5.90;;
17648;SDS011;8943;51.110;-4.158;2023-05-07T03:42:18;14.80;;;5.50;;
17648;SDS011;8943;51.110;-4.158;2023-05-07T03:44:46;16.07;;;5.93;;
17648;SDS011;8943;51.110;-4.158;2023-05-07T03:47:14;14.63;;;5.47;;
17648;SDS011;8943;51.110;-4.158;2023-05-07T03:49:42;17.80;;;6.13;;
17648;SDS011;8943;51.110;-4.158;2023-05-07T03:52:11;21.20;;;7.07;;
17648;SDS011;8943;51.110;-4.158;2023-05-07T03:54:39;22.47;;;6.63;;
17648;SDS011;8943;51.110;-4.158;2023-05-07T03:57:07;15.00;;;5.73;;
17648;SDS011;8943;51.110;-4.158;2023-05-07T03:59:35;41.83;;;6.23;;
17648;SDS011;8943;51.110;-4.158;2023-05-07T04:02:03;17.17;;;5.47;;
17648;SDS011;8943;51.110;-4.158;2023-05-07T04:04:31;13.93;;;5.13;;
17648;SDS011;8943;51.110;-4.158;2023-05-07T04:06:59;15.90;;;5.60;;
17648;SDS011;8943;51.110;-4.158;2023-05-07T04:09:29;17.63;;;5.50;;
17648;SDS011;8943;51.110;-4.158;2023-05-07T04:11:57;11.87;;;5.37;;
17648;SDS011;8943;51.110;-4.158;2023-05-07T04:14:25;15.23;;;6.70;;
17648;SDS011;8943;51.110;-4.158;2023-05-07T04:16:53;16.17;;;6.27;;
17648;SDS011;8943;51.110;-4.158;2023-05-07T04:19:21;19.87;;;5.40;;
17648;SDS011;8943;51.110;-4.158;2023-05-07T04:21:49;17.23;;;6.37;;
17648;SDS011;8943;51.110;-4.158;2023-05-07T04:24:17;16.77;;;5.57;;
17648;SDS011;8943;51.110;-4.158;2023-05-07T04:26:47;15.73;;;5.63;;
17648;SDS011;8943;51.110;-4.158;2023-05-07T04:29:15;15.33;;;5.90;;
17648;SDS011;8943;51.110;-4.158;2023-05-07T04:31:43;17.53;;;5.90;;
17648;SDS011;8943;51.110;-4.158;2023-05-07T04:34:11;15.50;;;5.27;;
17648;SDS011;8943;51.110;-4.158;2023-05-07T04:36:41;17.10;;;4.97;;
17648;SDS011;8943;51.110;-4.158;2023-05-07T04:39:09;15.90;;;5.63;;
17648;SDS011;8943;51.110;-4.158;2023-05-07T04:41:38;10.63;;;4.50;;
17648;SDS011;8943;51.110;-4.158;2023-05-07T04:44:07;15.77;;;5.10;;
17648;SDS011;8943;51.110;-4.158;2023-05-07T04:46:35;22.13;;;6.77;;
17648;SDS011;8943;51.110;-4.158;2023-05-07T04:49:03;14.53;;;5.47;;
17648;SDS011;8943;51.110;-4.158;2023-05-07T04:51:32;17.63;;;5.23;;
17648;SDS011;8943;51.110;-4.158;2023-05-07T04:54:00;18.20;;;5.43;;
17648;SDS011;8943;51.110;-4.158;2023-05-07T04:56:28;19.20;;;5.57;;
17648;SDS011;8943;51.110;-4.158;2023-05-07T04:58:56;13.33;;;5.30;;
17648;SDS011;8943;51.110;-4.158;2023-05-07T05:01:25;14.90;;;5.30;;
17648;SDS011;8943;51.110;-4.158;2023-05-07T05:03:54;20.13;;;6.20;;
17648;SDS011;8943;51.110;-4.158;2023-05-07T05:06:22;16.50;;;5.37;;
17648;SDS011;8943;51.110;-4.158;2023-05-07T05:08:50;23.17;;;5.53;;
17648;SDS011;8943;51.110;-4.158;2023-05-07T05:11:18;16.07;;;5.00;;
17648;SDS011;8943;51.110;-4.158;2023-05-07T05:13:47;15.63;;;4.83;;
17648;SDS011;8943;51.110;-4.158;2023-05-07T05:16:17;16.23;;;5.40;;
17648;SDS011;8943;51.110;-4.158;2023-05-07T05:18:47;22.63;;;5.57;;
17648;SDS011;8943;51.110;-4.158;2023-05-07T05:21:15;23.97;;;5.40;;
17648;SDS011;8943;51.110;-4.158;2023-05-07T05:23:43;21.97;;;6.30;;
17648;SDS011;8943;51.110;-4.158;2023-05-07T05:26:11;17.03;;;5.27;;
17648;SDS011;8943;51.110;-4.158;2023-05-07T05:28:39;16.20;;;5.23;;
17648;SDS011;8943;51.110;-4.158;2023-05-07T05:31:07;18.60;;;5.70;;
17648;SDS011;8943;51.110;-4.158;2023-05-07T05:33:35;22.67;;;5.57;;
17648;SDS011;8943;51.110;-4.158;2023-05-07T05:36:05;18.57;;;5.17;;
17648;SDS011;8943;51.110;-4.158;2023-05-07T05:38:36;16.00;;;5.33;;
17648;SDS011;8943;51.110;-4.158;2023-05-07T05:41:05;19.80;;;5.40;;
17648;SDS011;8943;51.110;-4.158;2023-05-07T05:43:33;13.13;;;4.43;;
17648;SDS011;8943;51.110;-4.158;2023-05-07T05:46:04;16.83;;;4.27;;
17648;SDS011;8943;51.110;-4.158;2023-05-07T05:48:32;20.60;;;5.53;;
17648;SDS011;8943;51.110;-4.158;2023-05-07T05:51:00;17.63;;;4.20;;
17648;SDS011;8943;51.110;-4.158;2023-05-07T05:53:30;14.20;;;5.13;;
17648;SDS011;8943;51.110;-4.158;2023-05-07T05:56:07;13.63;;;4.30;;
17648;SDS011;8943;51.110;-4.158;2023-05-07T05:58:38;17.23;;;4.97;;
17648;SDS011;8943;51.110;-4.158;2023-05-07T06:01:15;13.53;;;3.50;;
17648;SDS011;8943;51.110;-4.158;2023-05-07T06:03:48;12.93;;;4.13;;
17648;SDS011;8943;51.110;-4.158;2023-05-07T06:06:25;15.13;;;4.33;;
17648;SDS011;8943;51.110;-4.158;2023-05-07T06:08:56;13.80;;;3.53;;
17648;SDS011;8943;51.110;-4.158;2023-05-07T06:11:24;13.60;;;3.37;;
17648;SDS011;8943;51.110;-4.158;2023-05-07T06:13:54;13.40;;;3.30;;
17648;SDS011;8943;51.110;-4.158;2023-05-07T06:16:22;11.20;;;3.17;;
17648;SDS011;8943;51.110;-4.158;2023-05-07T06:18:50;11.93;;;3.10;;
17648;SDS011;8943;51.110;-4.158;2023-05-07T06:21:18;14.50;;;3.50;;
17648;SDS011;8943;51.110;-4.158;2023-05-07T06:23:46;14.10;;;3.60;;
17648;SDS011;8943;51.110;-4.158;2023-05-07T06:26:16;14.20;;;3.50;;
17648;SDS011;8943;51.110;-4.158;2023-05-07T06:28:44;15.27;;;4.10;;
17648;SDS011;8943;51.110;-4.158;2023-05-07T06:31:12;8.60;;;3.43;;
17648;SDS011;8943;51.110;-4.158;2023-05-07T06:33:42;11.00;;;3.40;;
17648;SDS011;8943;51.110;-4.158;2023-05-07T06:36:11;13.97;;;3.70;;
17648;SDS011;8943;51.110;-4.158;2023-05-07T06:38:39;14.03;;;4.10;;
17648;SDS011;8943;51.110;-4.158;2023-05-07T06:41:07;15.87;;;4.20;;
17648;SDS011;8943;51.110;-4.158;2023-05-07T06:43:37;12.43;;;3.90;;
17648;SDS011;8943;51.110;-4.158;2023-05-07T06:46:05;22.03;;;4.70;;
17648;SDS011;8943;51.110;-4.158;2023-05-07T06:48:33;19.37;;;5.77;;
17648;SDS011;8943;51.110;-4.158;2023-05-07T06:51:01;14.67;;;4.97;;
17648;SDS011;8943;51.110;-4.158;2023-05-07T06:53:29;14.67;;;5.60;;
17648;SDS011;8943;51.110;-4.158;2023-05-07T06:55:58;14.60;;;4.63;;
17648;SDS011;8943;51.110;-4.158;2023-05-07T06:58:26;17.57;;;4.30;;
17648;SDS011;8943;51.110;-4.158;2023-05-07T07:00:55;16.83;;;4.53;;
17648;SDS011;8943;51.110;-4.158;2023-05-07T07:03:24;14.27;;;4.80;;
17648;SDS011;8943;51.110;-4.158;2023-05-07T07:05:53;17.13;;;5.53;;
17648;SDS011;8943;51.110;-4.158;2023-05-07T07:08:21;15.13;;;4.20;;
17648;SDS011;8943;51.110;-4.158;2023-05-07T07:10:49;17.17;;;5.23;;
17648;SDS011;8943;51.110;-4.158;2023-05-07T07:13:17;13.33;;;4.30;;
17648;SDS011;8943;51.110;-4.158;2023-05-07T07:15:46;10.40;;;4.37;;
17648;SDS011;8943;51.110;-4.158;2023-05-07T07:18:15;19.50;;;4.90;;
17648;SDS011;8943;51.110;-4.158;2023-05-07T07:20:43;15.23;;;4.63;;
17648;SDS011;8943;51.110;-4.158;2023-05-07T07:23:12;18.10;;;4.63;;
17648;SDS011;8943;51.110;-4.158;2023-05-07T07:25:40;28.57;;;4.73;;
17648;SDS011;8943;51.110;-4.158;2023-05-07T07:28:08;16.83;;;4.33;;
17648;SDS011;8943;51.110;-4.158;2023-05-07T07:30:37;16.13;;;4.10;;
17648;SDS011;8943;51.110;-4.158;2023-05-07T07:33:06;16.53;;;4.60;;
17648;SDS011;8943;51.110;-4.158;2023-05-07T07:35:35;18.50;;;4.53;;
17648;SDS011;8943;51.110;-4.158;2023-05-07T07:38:03;20.03;;;4.93;;
17648;SDS011;8943;51.110;-4.158;2023-05-07T07:40:33;17.40;;;4.70;;
17648;SDS011;8943;51.110;-4.158;2023-05-07T07:43:02;10.90;;;3.80;;
17648;SDS011;8943;51.110;-4.158;2023-05-07T07:45:31;11.73;;;4.73;;
17648;SDS011;8943;51.110;-4.158;2023-05-07T07:47:59;11.90;;;4.17;;
17648;SDS011;8943;51.110;-4.158;2023-05-07T07:50:27;13.90;;;4.90;;
17648;SDS011;8943;51.110;-4.158;2023-05-07T07:53:12;19.33;;;4.13;;
17648;SDS011;8943;51.110;-4.158;2023-05-07T07:55:40;12.30;;;4.37;;
17648;SDS011;8943;51.110;-4.158;2023-05-07T07:58:08;15.83;;;4.73;;
17648;SDS011;8943;51.110;-4.158;2023-05-07T08:00:36;12.70;;;4.17;;
17648;SDS011;8943;51.110;-4.158;2023-05-07T08:03:04;11.40;;;3.97;;
17648;SDS011;8943;51.110;-4.158;2023-05-07T08:05:33;11.67;;;3.07;;
17648;SDS011;8943;51.110;-4.158;2023-05-07T08:08:02;12.13;;;2.80;;
17648;SDS011;8943;51.110;-4.158;2023-05-07T08:10:32;12.33;;;3.50;;
17648;SDS011;8943;51.110;-4.158;2023-05-07T08:13:04;14.50;;;3.27;;
17648;SDS011;8943;51.110;-4.158;2023-05-07T08:15:32;16.37;;;2.87;;
17648;SDS011;8943;51.110;-4.158;2023-05-07T08:18:01;9.83;;;2.90;;
17648;SDS011;8943;51.110;-4.158;2023-05-07T08:20:29;7.97;;;2.13;;
17648;SDS011;8943;51.110;-4.158;2023-05-07T08:22:58;4.87;;;2.00;;
17648;SDS011;8943;51.110;-4.158;2023-05-07T08:25:26;6.20;;;1.63;;
17648;SDS011;8943;51.110;-4.158;2023-05-07T08:27:55;8.10;;;2.00;;
17648;SDS011;8943;51.110;-4.158;2023-05-07T08:30:23;9.43;;;1.73;;
17648;SDS011;8943;51.110;-4.158;2023-05-07T08:32:52;6.47;;;2.50;;
17648;SDS011;8943;51.110;-4.158;2023-05-07T08:35:20;9.47;;;2.87;;
17648;SDS011;8943;51.110;-4.158;2023-05-07T08:37:49;8.33;;;2.63;;
17648;SDS011;8943;51.110;-4.158;2023-05-07T08:40:17;11.60;;;2.67;;
17648;SDS011;8943;51.110;-4.158;2023-05-07T08:42:45;8.87;;;2.43;;
17648;SDS011;8943;51.110;-4.158;2023-05-07T08:45:18;8.83;;;2.80;;
17648;SDS011;8943;51.110;-4.158;2023-05-07T08:47:51;8.63;;;1.77;;
17648;SDS011;8943;51.110;-4.158;2023-05-07T08:50:23;6.10;;;1.80;;
17648;SDS011;8943;51.110;-4.158;2023-05-07T08:52:51;8.27;;;2.10;;
17648;SDS011;8943;51.110;-4.158;2023-05-07T08:55:20;7.37;;;1.80;;
17648;SDS011;8943;51.110;-4.158;2023-05-07T08:57:48;6.40;;;1.23;;
17648;SDS011;8943;51.110;-4.158;2023-05-07T09:00:17;4.43;;;1.50;;
17648;SDS011;8943;51.110;-4.158;2023-05-07T09:02:46;2.83;;;1.20;;
17648;SDS011;8943;51.110;-4.158;2023-05-07T09:05:14;6.40;;;1.70;;
17648;SDS011;8943;51.110;-4.158;2023-05-07T09:07:42;2.77;;;1.10;;
17648;SDS011;8943;51.110;-4.158;2023-05-07T09:10:11;5.10;;;1.50;;
17648;SDS011;8943;51.110;-4.158;2023-05-07T09:12:39;3.43;;;1.00;;
17648;SDS011;8943;51.110;-4.158;2023-05-07T09:15:08;2.67;;;1.17;;
17648;SDS011;8943;51.110;-4.158;2023-05-07T09:17:39;5.37;;;1.17;;
17648;SDS011;8943;51.110;-4.158;2023-05-07T09:20:09;5.27;;;1.17;;
17648;SDS011;8943;51.110;-4.158;2023-05-07T09:22:37;5.50;;;1.37;;
17648;SDS011;8943;51.110;-4.158;2023-05-07T09:25:06;6.67;;;1.20;;
17648;SDS011;8943;51.110;-4.158;2023-05-07T09:27:36;3.63;;;1.10;;
17648;SDS011;8943;51.110;-4.158;2023-05-07T09:30:05;4.00;;;1.13;;
17648;SDS011;8943;51.110;-4.158;2023-05-07T09:32:35;1.87;;;1.17;;
17648;SDS011;8943;51.110;-4.158;2023-05-07T09:35:08;5.97;;;1.90;;
17648;SDS011;8943;51.110;-4.158;2023-05-07T09:37:43;2.17;;;1.13;;
17648;SDS011;8943;51.110;-4.158;2023-05-07T09:40:19;3.40;;;0.90;;
17648;SDS011;8943;51.110;-4.158;2023-05-07T09:42:48;3.50;;;0.93;;
17648;SDS011;8943;51.110;-4.158;2023-05-07T09:45:21;3.30;;;1.00;;
17648;SDS011;8943;51.110;-4.158;2023-05-07T09:47:49;1.00;;;0.70;;
17648;SDS011;8943;51.110;-4.158;2023-05-07T09:50:23;2.27;;;0.90;;
17648;SDS011;8943;51.110;-4.158;2023-05-07T09:52:55;2.37;;;0.83;;
17648;SDS011;8943;51.110;-4.158;2023-05-07T09:55:24;1.60;;;0.90;;
17648;SDS011;8943;51.110;-4.158;2023-05-07T09:57:53;3.47;;;1.00;;
17648;SDS011;8943;51.110;-4.158;2023-05-07T10:00:22;1.33;;;0.70;;
17648;SDS011;8943;51.110;-4.158;2023-05-07T10:02:51;5.27;;;0.70;;
17648;SDS011;8943;51.110;-4.158;2023-05-07T10:05:20;2.90;;;0.90;;
17648;SDS011;8943;51.110;-4.158;2023-05-07T10:07:51;2.70;;;0.70;;
17648;SDS011;8943;51.110;-4.158;2023-05-07T10:10:20;5.77;;;1.10;;
17648;SDS011;8943;51.110;-4.158;2023-05-07T10:12:49;6.63;;;1.50;;
17648;SDS011;8943;51.110;-4.158;2023-05-07T10:15:18;6.33;;;1.20;;
17648;SDS011;8943;51.110;-4.158;2023-05-07T10:17:46;4.37;;;1.40;;
17648;SDS011;8943;51.110;-4.158;2023-05-07T10:20:15;3.73;;;1.70;;
17648;SDS011;8943;51.110;-4.158;2023-05-07T10:22:45;6.63;;;1.77;;
17648;SDS011;8943;51.110;-4.158;2023-05-07T10:25:16;5.97;;;1.30;;
17648;SDS011;8943;51.110;-4.158;2023-05-07T10:27:50;2.87;;;1.33;;
17648;SDS011;8943;51.110;-4.158;2023-05-07T10:30:24;6.63;;;2.20;;
17648;SDS011;8943;51.110;-4.158;2023-05-07T10:33:04;4.10;;;1.73;;
17648;SDS011;8943;51.110;-4.158;2023-05-07T10:35:36;6.53;;;1.57;;
17648;SDS011;8943;51.110;-4.158;2023-05-07T10:38:08;5.23;;;1.60;;
17648;SDS011;8943;51.110;-4.158;2023-05-07T10:40:37;5.83;;;1.70;;
17648;SDS011;8943;51.110;-4.158;2023-05-07T10:43:05;8.93;;;1.63;;
17648;SDS011;8943;51.110;-4.158;2023-05-07T10:45:36;8.27;;;2.00;;
17648;SDS011;8943;51.110;-4.158;2023-05-07T10:48:13;7.17;;;1.73;;
17648;SDS011;8943;51.110;-4.158;2023-05-07T10:53:50;7.13;;;1.83;;
17648;SDS011;8943;51.110;-4.158;2023-05-07T10:56:48;6.03;;;2.60;;
17648;SDS011;8943;51.110;-4.158;2023-05-07T10:59:30;5.97;;;1.90;;
17648;SDS011;8943;51.110;-4.158;2023-05-07T11:02:00;5.63;;;1.90;;
17648;SDS011;8943;51.110;-4.158;2023-05-07T11:04:31;5.57;;;1.80;;
17648;SDS011;8943;51.110;-4.158;2023-05-07T11:10:05;6.63;;;1.80;;
17648;SDS011;8943;51.110;-4.158;2023-05-07T11:12:47;5.67;;;1.77;;
17648;SDS011;8943;51.110;-4.158;2023-05-07T11:18:11;5.07;;;1.77;;
17648;SDS011;8943;51.110;-4.158;2023-05-07T11:20:53;5.80;;;1.53;;
17648;SDS011;8943;51.110;-4.158;2023-05-07T11:26:30;5.20;;;1.37;;
17648;SDS011;8943;51.110;-4.158;2023-05-07T11:29:10;4.87;;;1.40;;
17648;SDS011;8943;51.110;-4.158;2023-05-07T11:31:39;5.47;;;1.43;;
17648;SDS011;8943;51.110;-4.158;2023-05-07T11:34:07;4.33;;;1.27;;
17648;SDS011;8943;51.110;-4.158;2023-05-07T11:36:37;6.03;;;1.10;;
17648;SDS011;8943;51.110;-4.158;2023-05-07T11:39:23;3.03;;;1.20;;
17648;SDS011;8943;51.110;-4.158;2023-05-07T11:41:55;3.03;;;1.33;;
17648;SDS011;8943;51.110;-4.158;2023-05-07T11:44:23;3.83;;;1.17;;
17648;SDS011;8943;51.110;-4.158;2023-05-07T11:46:51;6.33;;;2.00;;
17648;SDS011;8943;51.110;-4.158;2023-05-07T11:49:20;4.47;;;1.20;;
17648;SDS011;8943;51.110;-4.158;2023-05-07T11:51:48;4.27;;;1.33;;
17648;SDS011;8943;51.110;-4.158;2023-05-07T11:54:16;5.20;;;1.90;;
17648;SDS011;8943;51.110;-4.158;2023-05-07T11:56:45;7.33;;;1.87;;
17648;SDS011;8943;51.110;-4.158;2023-05-07T11:59:18;2.63;;;0.97;;
17648;SDS011;8943;51.110;-4.158;2023-05-07T12:01:46;5.27;;;1.43;;
17648;SDS011;8943;51.110;-4.158;2023-05-07T12:04:19;4.57;;;1.33;;
17648;SDS011;8943;51.110;-4.158;2023-05-07T12:06:48;3.33;;;1.60;;
17648;SDS011;8943;51.110;-4.158;2023-05-07T12:09:17;4.17;;;1.50;;
17648;SDS011;8943;51.110;-4.158;2023-05-07T12:11:45;3.27;;;1.00;;
17648;SDS011;8943;51.110;-4.158;2023-05-07T12:14:14;6.00;;;1.30;;
17648;SDS011;8943;51.110;-4.158;2023-05-07T12:16:45;6.70;;;1.63;;
17648;SDS011;8943;51.110;-4.158;2023-05-07T12:19:14;9.03;;;1.93;;
17648;SDS011;8943;51.110;-4.158;2023-05-07T12:21:42;4.00;;;1.33;;
17648;SDS011;8943;51.110;-4.158;2023-05-07T12:24:11;5.87;;;1.53;;
17648;SDS011;8943;51.110;-4.158;2023-05-07T12:26:39;4.57;;;1.73;;
17648;SDS011;8943;51.110;-4.158;2023-05-07T12:29:08;3.03;;;1.20;;
17648;SDS011;8943;51.110;-4.158;2023-05-07T12:31:37;3.67;;;1.13;;
17648;SDS011;8943;51.110;-4.158;2023-05-07T12:34:12;4.53;;;1.67;;
17648;SDS011;8943;51.110;-4.158;2023-05-07T12:36:40;6.17;;;1.40;;
17648;SDS011;8943;51.110;-4.158;2023-05-07T12:39:09;6.87;;;1.50;;
17648;SDS011;8943;51.110;-4.158;2023-05-07T12:41:52;6.33;;;1.57;;
17648;SDS011;8943;51.110;-4.158;2023-05-07T12:44:21;3.83;;;1.30;;
17648;SDS011;8943;51.110;-4.158;2023-05-07T12:46:51;3.97;;;1.30;;
17648;SDS011;8943;51.110;-4.158;2023-05-07T12:49:21;2.17;;;1.33;;
17648;SDS011;8943;51.110;-4.158;2023-05-07T12:51:51;4.20;;;1.50;;
17648;SDS011;8943;51.110;-4.158;2023-05-07T12:54:29;2.30;;;1.27;;
17648;SDS011;8943;51.110;-4.158;2023-05-07T12:57:02;4.73;;;1.10;;
17648;SDS011;8943;51.110;-4.158;2023-05-07T12:59:31;2.87;;;0.80;;
17648;SDS011;8943;51.110;-4.158;2023-05-07T13:02:00;1.90;;;1.20;;
17648;SDS011;8943;51.110;-4.158;2023-05-07T13:04:30;6.67;;;1.40;;
17648;SDS011;8943;51.110;-4.158;2023-05-07T13:06:59;3.60;;;1.37;;
17648;SDS011;8943;51.110;-4.158;2023-05-07T13:09:27;3.90;;;1.30;;
17648;SDS011;8943;51.110;-4.158;2023-05-07T13:11:55;2.40;;;1.20;;
17648;SDS011;8943;51.110;-4.158;2023-05-07T13:14:26;3.13;;;0.93;;
17648;SDS011;8943;51.110;-4.158;2023-05-07T13:16:54;2.97;;;1.20;;
17648;SDS011;8943;51.110;-4.158;2023-05-07T13:19:23;3.27;;;1.30;;
17648;SDS011;8943;51.110;-4.158;2023-05-07T13:21:53;3.30;;;1.00;;
17648;SDS011;8943;51.110;-4.158;2023-05-07T13:24:21;4.03;;;1.10;;
17648;SDS011;8943;51.110;-4.158;2023-05-07T13:26:49;2.60;;;1.00;;
17648;SDS011;8943;51.110;-4.158;2023-05-07T13:29:17;2.27;;;1.20;;
17648;SDS011;8943;51.110;-4.158;2023-05-07T13:31:45;2.33;;;0.98;;
17648;SDS011;8943;51.110;-4.158;2023-05-07T13:34:15;4.50;;;1.00;;
17648;SDS011;8943;51.110;-4.158;2023-05-07T13:36:43;3.05;;;1.20;;
17648;SDS011;8943;51.110;-4.158;2023-05-07T13:39:13;5.15;;;1.08;;
17648;SDS011;8943;51.110;-4.158;2023-05-07T13:41:42;4.97;;;1.13;;
17648;SDS011;8943;51.110;-4.158;2023-05-07T13:44:10;1.75;;;0.70;;
17648;SDS011;8943;51.110;-4.158;2023-05-07T13:46:38;1.95;;;0.70;;
17648;SDS011;8943;51.110;-4.158;2023-05-07T13:49:06;1.77;;;0.65;;
17648;SDS011;8943;51.110;-4.158;2023-05-07T13:51:34;3.85;;;1.05;;
17648;SDS011;8943;51.110;-4.158;2023-05-07T13:54:02;2.03;;;1.02;;
17648;SDS011;8943;51.110;-4.158;2023-05-07T13:56:32;2.45;;;1.10;;
17648;SDS011;8943;51.110;-4.158;2023-05-07T13:59:00;4.35;;;1.02;;
17648;SDS011;8943;51.110;-4.158;2023-05-07T14:01:28;4.07;;;1.23;;
17648;SDS011;8943;51.110;-4.158;2023-05-07T14:03:56;2.88;;;0.80;;
17648;SDS011;8943;51.110;-4.158;2023-05-07T14:06:26;3.10;;;1.02;;
17648;SDS011;8943;51.110;-4.158;2023-05-07T14:08:55;2.38;;;1.00;;
17648;SDS011;8943;51.110;-4.158;2023-05-07T14:11:24;2.03;;;0.70;;
17648;SDS011;8943;51.110;-4.158;2023-05-07T14:13:54;4.30;;;0.90;;
17648;SDS011;8943;51.110;-4.158;2023-05-07T14:16:23;2.28;;;0.52;;
17648;SDS011;8943;51.110;-4.158;2023-05-07T14:18:51;2.17;;;0.90;;
17648;SDS011;8943;51.110;-4.158;2023-05-07T14:21:23;2.28;;;0.73;;
17648;SDS011;8943;51.110;-4.158;2023-05-07T14:23:52;1.50;;;0.60;;
17648;SDS011;8943;51.110;-4.158;2023-05-07T14:26:20;4.65;;;1.08;;
17648;SDS011;8943;51.110;-4.158;2023-05-07T14:28:49;2.97;;;0.90;;
17648;SDS011;8943;51.110;-4.158;2023-05-07T14:31:19;4.22;;;1.05;;
17648;SDS011;8943;51.110;-4.158;2023-05-07T14:33:47;5.43;;;1.00;;
17648;SDS011;8943;51.110;-4.158;2023-05-07T14:36:16;3.77;;;1.00;;
17648;SDS011;8943;51.110;-4.158;2023-05-07T14:38:46;4.70;;;1.10;;
17648;SDS011;8943;51.110;-4.158;2023-05-07T14:41:15;2.27;;;0.83;;
17648;SDS011;8943;51.110;-4.158;2023-05-07T14:43:43;3.63;;;1.20;;
17648;SDS011;8943;51.110;-4.158;2023-05-07T14:46:16;3.80;;;1.30;;
17648;SDS011;8943;51.110;-4.158;2023-05-07T14:48:46;3.03;;;1.10;;
17648;SDS011;8943;51.110;-4.158;2023-05-07T14:51:14;2.90;;;0.90;;
17648;SDS011;8943;51.110;-4.158;2023-05-07T14:53:42;4.93;;;1.13;;
17648;SDS011;8943;51.110;-4.158;2023-05-07T14:56:11;4.87;;;1.30;;
17648;SDS011;8943;51.110;-4.158;2023-05-07T14:58:39;4.77;;;1.10;;
17648;SDS011;8943;51.110;-4.158;2023-05-07T15:01:08;3.53;;;1.07;;
17648;SDS011;8943;51.110;-4.158;2023-05-07T15:03:36;6.73;;;1.60;;
17648;SDS011;8943;51.110;-4.158;2023-05-07T15:06:06;6.30;;;1.07;;
17648;SDS011;8943;51.110;-4.158;2023-05-07T15:08:34;6.10;;;1.40;;